Hertogenbosch, Netherlands
Current Conditions -  °F | °C
As of 11:55 AM on Saturday 25 Oct 2014 (Local Time) from EHAM Reporting Station
Broken Clouds Broken Clouds  
Wind Chill: 59°   Ceiling: 4400
Heat Index: 59°   Visibility: 6mi
Dew Point: 50°   Wind: 9mph
Humidity: 72%   Direction: 280°W
Pressure: 30.03"   Gusts: NA
Location:  52.09°N, 5.24°E
Report Text: EHAM 250955Z 28008KT 9999 FEW020 BKN044 15/10 Q1017 NOSIG
Loading
Personal Weather Stations






























Interactive Weather Map
Tropical Storm Tracking
New forecast layout! Learn more

10-Day Weather Forecast

Advertisements
Track Severe Weather on mobile